sensor_id;sensor_type;location;lat;lon;timestamp;temperature;humidity
18753;DHT22;9505;50.882;5.350;2022-11-06T00:00:37;9.40;99.90
18753;DHT22;9505;50.882;5.350;2022-11-06T00:03:03;9.30;99.90
18753;DHT22;9505;50.882;5.350;2022-11-06T00:05:29;9.20;99.90
18753;DHT22;9505;50.882;5.350;2022-11-06T00:08:14;9.20;99.90
18753;DHT22;9505;50.882;5.350;2022-11-06T00:10:40;9.10;99.90
18753;DHT22;9505;50.882;5.350;2022-11-06T00:13:06;9.10;99.90
18753;DHT22;9505;50.882;5.350;2022-11-06T00:15:32;9.10;99.90
18753;DHT22;9505;50.882;5.350;2022-11-06T00:17:58;9.10;99.90
18753;DHT22;9505;50.882;5.350;2022-11-06T00:20:23;9.20;99.90
18753;DHT22;9505;50.882;5.350;2022-11-06T00:22:49;9.20;99.90
18753;DHT22;9505;50.882;5.350;2022-11-06T00:25:14;9.20;99.90
18753;DHT22;9505;50.882;5.350;2022-11-06T00:27:40;9.30;99.90
18753;DHT22;9505;50.882;5.350;2022-11-06T00:30:08;9.40;99.90
18753;DHT22;9505;50.882;5.350;2022-11-06T00:32:36;9.40;99.90
18753;DHT22;9505;50.882;5.350;2022-11-06T00:35:02;9.50;99.90
18753;DHT22;9505;50.882;5.350;2022-11-06T00:37:27;9.50;99.90
18753;DHT22;9505;50.882;5.350;2022-11-06T00:39:54;9.50;99.90
18753;DHT22;9505;50.882;5.350;2022-11-06T00:42:20;9.60;99.90
18753;DHT22;9505;50.882;5.350;2022-11-06T00:44:45;9.70;99.90
18753;DHT22;9505;50.882;5.350;2022-11-06T00:47:11;9.70;99.90
18753;DHT22;9505;50.882;5.350;2022-11-06T00:49:37;9.80;99.90
18753;DHT22;9505;50.882;5.350;2022-11-06T00:52:03;9.70;99.90
18753;DHT22;9505;50.882;5.350;2022-11-06T00:54:29;9.60;99.90
18753;DHT22;9505;50.882;5.350;2022-11-06T00:56:55;9.50;99.90
18753;DHT22;9505;50.882;5.350;2022-11-06T00:59:20;9.40;99.90
18753;DHT22;9505;50.882;5.350;2022-11-06T01:01:46;9.40;99.90
18753;DHT22;9505;50.882;5.350;2022-11-06T01:04:12;9.30;99.90
18753;DHT22;9505;50.882;5.350;2022-11-06T01:06:42;9.30;99.90
18753;DHT22;9505;50.882;5.350;2022-11-06T01:09:11;9.30;99.90
18753;DHT22;9505;50.882;5.350;2022-11-06T01:11:44;9.30;99.90
18753;DHT22;9505;50.882;5.350;2022-11-06T01:14:13;9.40;99.90
18753;DHT22;9505;50.882;5.350;2022-11-06T01:16:39;9.40;99.90
18753;DHT22;9505;50.882;5.350;2022-11-06T01:19:05;9.50;99.90
18753;DHT22;9505;50.882;5.350;2022-11-06T01:21:36;9.50;99.90
18753;DHT22;9505;50.882;5.350;2022-11-06T01:24:20;9.60;99.90
18753;DHT22;9505;50.882;5.350;2022-11-06T01:26:46;9.60;99.90
18753;DHT22;9505;50.882;5.350;2022-11-06T01:29:13;9.60;99.90
18753;DHT22;9505;50.882;5.350;2022-11-06T01:31:39;9.60;99.90
18753;DHT22;9505;50.882;5.350;2022-11-06T01:34:05;9.70;99.90
18753;DHT22;9505;50.882;5.350;2022-11-06T01:36:32;9.70;99.90
18753;DHT22;9505;50.882;5.350;2022-11-06T01:39:04;9.70;99.90
18753;DHT22;9505;50.882;5.350;2022-11-06T01:41:33;9.70;99.90
18753;DHT22;9505;50.882;5.350;2022-11-06T01:46:38;9.70;99.90
18753;DHT22;9505;50.882;5.350;2022-11-06T01:49:05;9.80;99.90
18753;DHT22;9505;50.882;5.350;2022-11-06T01:51:42;9.90;99.90
18753;DHT22;9505;50.882;5.350;2022-11-06T01:54:10;9.90;99.90
18753;DHT22;9505;50.882;5.350;2022-11-06T01:56:37;9.90;99.90
18753;DHT22;9505;50.882;5.350;2022-11-06T01:59:05;9.90;99.90
18753;DHT22;9505;50.882;5.350;2022-11-06T02:01:31;9.90;99.90
18753;DHT22;9505;50.882;5.350;2022-11-06T02:04:08;9.90;99.90
18753;DHT22;9505;50.882;5.350;2022-11-06T02:06:34;9.80;99.90
18753;DHT22;9505;50.882;5.350;2022-11-06T02:09:01;9.80;99.90
18753;DHT22;9505;50.882;5.350;2022-11-06T02:11:27;9.70;99.90
18753;DHT22;9505;50.882;5.350;2022-11-06T02:17:03;9.60;99.90
18753;DHT22;9505;50.882;5.350;2022-11-06T02:19:58;9.60;99.90
18753;DHT22;9505;50.882;5.350;2022-11-06T02:25:13;9.60;99.90
18753;DHT22;9505;50.882;5.350;2022-11-06T02:27:43;9.70;99.90
18753;DHT22;9505;50.882;5.350;2022-11-06T02:30:12;9.70;99.90
18753;DHT22;9505;50.882;5.350;2022-11-06T02:32:43;9.80;99.90
18753;DHT22;9505;50.882;5.350;2022-11-06T02:37:59;9.80;99.90
18753;DHT22;9505;50.882;5.350;2022-11-06T02:40:28;9.90;99.90
18753;DHT22;9505;50.882;5.350;2022-11-06T02:42:58;9.90;99.90
18753;DHT22;9505;50.882;5.350;2022-11-06T02:45:28;9.90;99.90
18753;DHT22;9505;50.882;5.350;2022-11-06T02:47:57;9.90;99.90
18753;DHT22;9505;50.882;5.350;2022-11-06T02:50:26;10.00;99.90
18753;DHT22;9505;50.882;5.350;2022-11-06T02:53:04;10.00;99.90
18753;DHT22;9505;50.882;5.350;2022-11-06T02:55:36;10.00;99.90
18753;DHT22;9505;50.882;5.350;2022-11-06T02:58:12;10.00;99.90
18753;DHT22;9505;50.882;5.350;2022-11-06T03:00:39;10.00;99.90
18753;DHT22;9505;50.882;5.350;2022-11-06T03:03:10;10.00;99.90
18753;DHT22;9505;50.882;5.350;2022-11-06T03:16:22;10.10;99.90
18753;DHT22;9505;50.882;5.350;2022-11-06T03:18:57;10.20;99.90
18753;DHT22;9505;50.882;5.350;2022-11-06T03:21:32;10.20;99.90
18753;DHT22;9505;50.882;5.350;2022-11-06T03:24:12;10.20;99.90
18753;DHT22;9505;50.882;5.350;2022-11-06T03:26:44;10.20;99.90
18753;DHT22;9505;50.882;5.350;2022-11-06T03:29:16;10.10;99.90
18753;DHT22;9505;50.882;5.350;2022-11-06T03:31:51;10.10;99.90
18753;DHT22;9505;50.882;5.350;2022-11-06T03:34:41;10.10;99.90
18753;DHT22;9505;50.882;5.350;2022-11-06T03:37:15;10.20;99.90
18753;DHT22;9505;50.882;5.350;2022-11-06T03:39:52;10.20;99.90
18753;DHT22;9505;50.882;5.350;2022-11-06T03:42:23;10.20;99.90
18753;DHT22;9505;50.882;5.350;2022-11-06T03:44:58;10.20;99.90
18753;DHT22;9505;50.882;5.350;2022-11-06T03:47:28;10.20;99.90
18753;DHT22;9505;50.882;5.350;2022-11-06T03:50:08;10.20;99.90
18753;DHT22;9505;50.882;5.350;2022-11-06T03:52:50;10.20;99.90
18753;DHT22;9505;50.882;5.350;2022-11-06T03:55:23;10.30;99.90
18753;DHT22;9505;50.882;5.350;2022-11-06T03:57:54;10.20;99.90
18753;DHT22;9505;50.882;5.350;2022-11-06T04:00:20;10.30;99.90
18753;DHT22;9505;50.882;5.350;2022-11-06T04:02:51;10.30;99.90
18753;DHT22;9505;50.882;5.350;2022-11-06T04:05:50;10.30;99.90
18753;DHT22;9505;50.882;5.350;2022-11-06T04:08:17;10.30;99.90
18753;DHT22;9505;50.882;5.350;2022-11-06T04:11:05;10.20;99.90
18753;DHT22;9505;50.882;5.350;2022-11-06T04:13:51;10.00;99.90
18753;DHT22;9505;50.882;5.350;2022-11-06T04:16:38;10.00;99.90
18753;DHT22;9505;50.882;5.350;2022-11-06T04:19:15;9.90;99.90
18753;DHT22;9505;50.882;5.350;2022-11-06T04:24:49;9.80;99.90
18753;DHT22;9505;50.882;5.350;2022-11-06T04:30:34;9.60;99.90
18753;DHT22;9505;50.882;5.350;2022-11-06T04:33:10;9.60;99.90
18753;DHT22;9505;50.882;5.350;2022-11-06T04:46:14;9.50;99.90
18753;DHT22;9505;50.882;5.350;2022-11-06T04:48:42;9.50;99.90
18753;DHT22;9505;50.882;5.350;2022-11-06T04:51:10;9.50;99.90
18753;DHT22;9505;50.882;5.350;2022-11-06T04:53:38;9.60;99.90
18753;DHT22;9505;50.882;5.350;2022-11-06T04:56:28;9.50;99.90
18753;DHT22;9505;50.882;5.350;2022-11-06T04:58:54;9.50;99.90
18753;DHT22;9505;50.882;5.350;2022-11-06T05:01:19;9.60;99.90
18753;DHT22;9505;50.882;5.350;2022-11-06T05:03:45;9.60;99.90
18753;DHT22;9505;50.882;5.350;2022-11-06T05:06:11;9.60;99.90
18753;DHT22;9505;50.882;5.350;2022-11-06T05:08:37;9.60;99.90
18753;DHT22;9505;50.882;5.350;2022-11-06T05:11:02;9.60;99.90
18753;DHT22;9505;50.882;5.350;2022-11-06T05:13:28;9.60;99.90
18753;DHT22;9505;50.882;5.350;2022-11-06T05:15:55;9.60;99.90
18753;DHT22;9505;50.882;5.350;2022-11-06T05:18:22;9.70;99.90
18753;DHT22;9505;50.882;5.350;2022-11-06T05:20:47;9.70;99.90
18753;DHT22;9505;50.882;5.350;2022-11-06T05:23:13;9.70;99.90
18753;DHT22;9505;50.882;5.350;2022-11-06T05:25:40;9.80;99.90
18753;DHT22;9505;50.882;5.350;2022-11-06T05:28:07;9.80;99.90
18753;DHT22;9505;50.882;5.350;2022-11-06T05:30:35;9.90;99.90
18753;DHT22;9505;50.882;5.350;2022-11-06T05:33:02;9.90;99.90
18753;DHT22;9505;50.882;5.350;2022-11-06T05:35:27;10.00;99.90
18753;DHT22;9505;50.882;5.350;2022-11-06T05:38:00;10.00;99.90
18753;DHT22;9505;50.882;5.350;2022-11-06T05:40:26;10.00;99.90
18753;DHT22;9505;50.882;5.350;2022-11-06T05:42:52;10.00;99.90
18753;DHT22;9505;50.882;5.350;2022-11-06T05:45:18;10.10;99.90
18753;DHT22;9505;50.882;5.350;2022-11-06T05:47:43;10.10;99.90
18753;DHT22;9505;50.882;5.350;2022-11-06T05:50:09;10.20;99.90
18753;DHT22;9505;50.882;5.350;2022-11-06T05:52:35;10.10;99.90
18753;DHT22;9505;50.882;5.350;2022-11-06T05:55:00;10.10;99.90
18753;DHT22;9505;50.882;5.350;2022-11-06T05:57:26;10.10;99.90
18753;DHT22;9505;50.882;5.350;2022-11-06T05:59:52;10.10;99.90
18753;DHT22;9505;50.882;5.350;2022-11-06T06:02:17;10.00;99.90
18753;DHT22;9505;50.882;5.350;2022-11-06T06:04:43;10.10;99.90
18753;DHT22;9505;50.882;5.350;2022-11-06T06:07:08;10.10;99.90
18753;DHT22;9505;50.882;5.350;2022-11-06T06:09:34;10.20;99.90
18753;DHT22;9505;50.882;5.350;2022-11-06T06:12:00;10.20;99.90
18753;DHT22;9505;50.882;5.350;2022-11-06T06:14:25;10.20;99.90
18753;DHT22;9505;50.882;5.350;2022-11-06T06:16:51;10.20;99.90
18753;DHT22;9505;50.882;5.350;2022-11-06T06:19:17;10.20;99.90
18753;DHT22;9505;50.882;5.350;2022-11-06T06:21:43;10.10;99.90
18753;DHT22;9505;50.882;5.350;2022-11-06T06:24:08;10.10;99.90
18753;DHT22;9505;50.882;5.350;2022-11-06T06:26:34;10.20;99.90
18753;DHT22;9505;50.882;5.350;2022-11-06T06:29:00;10.10;99.90
18753;DHT22;9505;50.882;5.350;2022-11-06T06:31:26;10.10;99.90
18753;DHT22;9505;50.882;5.350;2022-11-06T06:33:52;10.10;99.90
18753;DHT22;9505;50.882;5.350;2022-11-06T06:36:17;10.00;99.90
18753;DHT22;9505;50.882;5.350;2022-11-06T06:38:43;10.10;99.90
18753;DHT22;9505;50.882;5.350;2022-11-06T06:41:09;10.10;99.90
18753;DHT22;9505;50.882;5.350;2022-11-06T06:43:35;10.10;99.90
18753;DHT22;9505;50.882;5.350;2022-11-06T06:46:03;10.10;99.90
18753;DHT22;9505;50.882;5.350;2022-11-06T06:48:29;10.10;99.90
18753;DHT22;9505;50.882;5.350;2022-11-06T06:51:02;10.10;99.90
18753;DHT22;9505;50.882;5.350;2022-11-06T06:53:28;10.10;99.90
18753;DHT22;9505;50.882;5.350;2022-11-06T06:55:56;10.10;99.90
18753;DHT22;9505;50.882;5.350;2022-11-06T06:58:22;10.20;99.90
18753;DHT22;9505;50.882;5.350;2022-11-06T07:00:47;10.10;99.90
18753;DHT22;9505;50.882;5.350;2022-11-06T07:03:13;10.10;99.90
18753;DHT22;9505;50.882;5.350;2022-11-06T07:05:38;10.20;99.90
18753;DHT22;9505;50.882;5.350;2022-11-06T07:08:04;10.20;99.90
18753;DHT22;9505;50.882;5.350;2022-11-06T07:10:30;10.20;99.90
18753;DHT22;9505;50.882;5.350;2022-11-06T07:13:03;10.20;99.90
18753;DHT22;9505;50.882;5.350;2022-11-06T07:15:29;10.30;99.90
18753;DHT22;9505;50.882;5.350;2022-11-06T07:18:04;10.30;99.90
18753;DHT22;9505;50.882;5.350;2022-11-06T07:20:30;10.40;99.90
18753;DHT22;9505;50.882;5.350;2022-11-06T07:22:56;10.50;99.90
18753;DHT22;9505;50.882;5.350;2022-11-06T07:25:23;10.60;99.90
18753;DHT22;9505;50.882;5.350;2022-11-06T07:27:48;10.50;99.90
18753;DHT22;9505;50.882;5.350;2022-11-06T07:30:14;10.40;99.90
18753;DHT22;9505;50.882;5.350;2022-11-06T07:32:39;10.50;99.90
18753;DHT22;9505;50.882;5.350;2022-11-06T07:35:06;10.50;99.90
18753;DHT22;9505;50.882;5.350;2022-11-06T07:37:31;10.50;99.90
18753;DHT22;9505;50.882;5.350;2022-11-06T07:39:57;10.50;99.90
18753;DHT22;9505;50.882;5.350;2022-11-06T07:42:23;10.60;99.90
18753;DHT22;9505;50.882;5.350;2022-11-06T07:44:49;10.70;99.90
18753;DHT22;9505;50.882;5.350;2022-11-06T07:47:18;10.70;99.90
18753;DHT22;9505;50.882;5.350;2022-11-06T07:49:44;10.60;99.90
18753;DHT22;9505;50.882;5.350;2022-11-06T07:52:09;10.70;99.90
18753;DHT22;9505;50.882;5.350;2022-11-06T07:54:35;10.80;99.90
18753;DHT22;9505;50.882;5.350;2022-11-06T07:57:00;10.80;99.90
18753;DHT22;9505;50.882;5.350;2022-11-06T07:59:26;10.90;99.90
18753;DHT22;9505;50.882;5.350;2022-11-06T08:01:51;10.90;99.90
18753;DHT22;9505;50.882;5.350;2022-11-06T08:04:17;11.10;99.90
18753;DHT22;9505;50.882;5.350;2022-11-06T08:06:43;11.20;99.90
18753;DHT22;9505;50.882;5.350;2022-11-06T08:09:08;11.50;99.90
18753;DHT22;9505;50.882;5.350;2022-11-06T08:11:34;11.90;99.90
18753;DHT22;9505;50.882;5.350;2022-11-06T08:14:00;12.10;99.90
18753;DHT22;9505;50.882;5.350;2022-11-06T08:16:26;11.90;99.90
18753;DHT22;9505;50.882;5.350;2022-11-06T08:18:52;11.60;99.90
18753;DHT22;9505;50.882;5.350;2022-11-06T08:21:17;11.60;99.90
18753;DHT22;9505;50.882;5.350;2022-11-06T08:23:43;11.60;99.90
18753;DHT22;9505;50.882;5.350;2022-11-06T08:26:09;11.90;99.90
18753;DHT22;9505;50.882;5.350;2022-11-06T08:28:35;12.30;99.90
18753;DHT22;9505;50.882;5.350;2022-11-06T08:31:05;12.10;99.90
18753;DHT22;9505;50.882;5.350;2022-11-06T08:33:30;11.90;99.90
18753;DHT22;9505;50.882;5.350;2022-11-06T08:35:59;11.60;99.90
18753;DHT22;9505;50.882;5.350;2022-11-06T08:38:24;11.60;99.90
18753;DHT22;9505;50.882;5.350;2022-11-06T08:40:50;11.70;99.90
18753;DHT22;9505;50.882;5.350;2022-11-06T08:43:15;12.20;99.90
18753;DHT22;9505;50.882;5.350;2022-11-06T08:45:42;13.40;99.90
18753;DHT22;9505;50.882;5.350;2022-11-06T08:48:08;14.40;99.90
18753;DHT22;9505;50.882;5.350;2022-11-06T08:50:38;14.20;99.90
18753;DHT22;9505;50.882;5.350;2022-11-06T08:53:04;13.60;99.90
18753;DHT22;9505;50.882;5.350;2022-11-06T08:55:31;12.80;99.90
18753;DHT22;9505;50.882;5.350;2022-11-06T08:57:57;12.60;99.90
18753;DHT22;9505;50.882;5.350;2022-11-06T09:00:24;12.30;99.90
18753;DHT22;9505;50.882;5.350;2022-11-06T09:02:50;11.90;99.90
18753;DHT22;9505;50.882;5.350;2022-11-06T09:05:15;11.80;99.90
18753;DHT22;9505;50.882;5.350;2022-11-06T09:07:41;11.80;99.90
18753;DHT22;9505;50.882;5.350;2022-11-06T09:10:07;11.90;99.90
18753;DHT22;9505;50.882;5.350;2022-11-06T09:12:33;11.80;99.90
18753;DHT22;9505;50.882;5.350;2022-11-06T09:14:58;11.90;99.90
18753;DHT22;9505;50.882;5.350;2022-11-06T09:17:24;12.00;99.90
18753;DHT22;9505;50.882;5.350;2022-11-06T09:19:50;12.20;99.90
18753;DHT22;9505;50.882;5.350;2022-11-06T09:22:16;12.10;99.90
18753;DHT22;9505;50.882;5.350;2022-11-06T09:24:42;12.30;99.90
18753;DHT22;9505;50.882;5.350;2022-11-06T09:27:08;12.50;99.90
18753;DHT22;9505;50.882;5.350;2022-11-06T09:29:33;12.60;99.90
18753;DHT22;9505;50.882;5.350;2022-11-06T09:31:59;12.60;99.90
18753;DHT22;9505;50.882;5.350;2022-11-06T09:34:25;12.40;99.90
18753;DHT22;9505;50.882;5.350;2022-11-06T09:36:50;12.40;99.90
18753;DHT22;9505;50.882;5.350;2022-11-06T09:39:16;12.30;99.90
18753;DHT22;9505;50.882;5.350;2022-11-06T09:41:50;12.30;99.90
18753;DHT22;9505;50.882;5.350;2022-11-06T09:46:56;12.40;99.90
18753;DHT22;9505;50.882;5.350;2022-11-06T09:49:28;12.60;99.90
18753;DHT22;9505;50.882;5.350;2022-11-06T09:52:04;12.40;99.90
18753;DHT22;9505;50.882;5.350;2022-11-06T09:54:52;12.40;99.90
18753;DHT22;9505;50.882;5.350;2022-11-06T09:57:26;12.40;99.90
18753;DHT22;9505;50.882;5.350;2022-11-06T09:59:54;12.40;99.90
18753;DHT22;9505;50.882;5.350;2022-11-06T10:02:44;12.30;99.90
18753;DHT22;9505;50.882;5.350;2022-11-06T10:07:39;12.40;99.90
18753;DHT22;9505;50.882;5.350;2022-11-06T10:10:10;12.50;99.90
18753;DHT22;9505;50.882;5.350;2022-11-06T10:13:04;12.50;99.90
18753;DHT22;9505;50.882;5.350;2022-11-06T10:15:42;12.50;99.90
18753;DHT22;9505;50.882;5.350;2022-11-06T10:20:56;12.70;99.90
18753;DHT22;9505;50.882;5.350;2022-11-06T10:23:33;12.70;99.90
18753;DHT22;9505;50.882;5.350;2022-11-06T10:31:13;12.90;99.90
18753;DHT22;9505;50.882;5.350;2022-11-06T10:36:44;13.10;99.90
18753;DHT22;9505;50.882;5.350;2022-11-06T10:39:16;13.20;99.90
18753;DHT22;9505;50.882;5.350;2022-11-06T10:41:47;13.40;99.90
18753;DHT22;9505;50.882;5.350;2022-11-06T10:46:50;13.30;99.90
18753;DHT22;9505;50.882;5.350;2022-11-06T10:52:13;13.60;99.90
18753;DHT22;9505;50.882;5.350;2022-11-06T10:58:01;13.20;99.90
18753;DHT22;9505;50.882;5.350;2022-11-06T11:00:27;13.20;99.90
18753;DHT22;9505;50.882;5.350;2022-11-06T11:02:59;13.10;99.90
18753;DHT22;9505;50.882;5.350;2022-11-06T11:05:39;13.20;99.90
18753;DHT22;9505;50.882;5.350;2022-11-06T11:08:05;12.90;99.90
18753;DHT22;9505;50.882;5.350;2022-11-06T11:10:33;12.80;99.90
18753;DHT22;9505;50.882;5.350;2022-11-06T11:13:01;13.00;99.90
18753;DHT22;9505;50.882;5.350;2022-11-06T11:15:30;13.10;99.90
18753;DHT22;9505;50.882;5.350;2022-11-06T11:18:14;13.20;99.90
18753;DHT22;9505;50.882;5.350;2022-11-06T11:20:43;13.10;99.90
18753;DHT22;9505;50.882;5.350;2022-11-06T11:25:42;13.20;99.90
18753;DHT22;9505;50.882;5.350;2022-11-06T11:28:30;13.20;99.90
18753;DHT22;9505;50.882;5.350;2022-11-06T11:31:06;12.90;99.90
18753;DHT22;9505;50.882;5.350;2022-11-06T11:33:33;12.70;99.90
18753;DHT22;9505;50.882;5.350;2022-11-06T11:35:59;12.60;99.90
18753;DHT22;9505;50.882;5.350;2022-11-06T11:38:27;12.70;99.90
18753;DHT22;9505;50.882;5.350;2022-11-06T11:41:11;12.80;99.90
18753;DHT22;9505;50.882;5.350;2022-11-06T11:43:38;12.80;99.90
18753;DHT22;9505;50.882;5.350;2022-11-06T11:48:48;12.90;99.90
18753;DHT22;9505;50.882;5.350;2022-11-06T11:53:52;12.90;99.90
18753;DHT22;9505;50.882;5.350;2022-11-06T11:56:19;12.80;99.90
18753;DHT22;9505;50.882;5.350;2022-11-06T11:58:51;13.00;99.90
18753;DHT22;9505;50.882;5.350;2022-11-06T12:01:18;13.00;99.90
18753;DHT22;9505;50.882;5.350;2022-11-06T12:03:47;13.00;99.90
18753;DHT22;9505;50.882;5.350;2022-11-06T12:06:16;13.00;99.90
18753;DHT22;9505;50.882;5.350;2022-11-06T12:08:53;13.00;99.90
18753;DHT22;9505;50.882;5.350;2022-11-06T12:11:22;13.00;99.90
18753;DHT22;9505;50.882;5.350;2022-11-06T12:14:18;12.90;99.90
18753;DHT22;9505;50.882;5.350;2022-11-06T12:16:51;12.90;99.90
18753;DHT22;9505;50.882;5.350;2022-11-06T12:19:19;13.00;99.90
18753;DHT22;9505;50.882;5.350;2022-11-06T12:21:50;12.90;99.90
18753;DHT22;9505;50.882;5.350;2022-11-06T12:24:45;12.80;99.90
18753;DHT22;9505;50.882;5.350;2022-11-06T12:27:14;12.60;99.90
18753;DHT22;9505;50.882;5.350;2022-11-06T12:29:46;12.50;99.90
18753;DHT22;9505;50.882;5.350;2022-11-06T12:32:18;12.50;99.90
18753;DHT22;9505;50.882;5.350;2022-11-06T12:37:34;12.70;99.90
18753;DHT22;9505;50.882;5.350;2022-11-06T12:40:31;12.80;99.90
18753;DHT22;9505;50.882;5.350;2022-11-06T13:10:20;11.50;99.90
18753;DHT22;9505;50.882;5.350;2022-11-06T13:18:23;10.90;99.90
18753;DHT22;9505;50.882;5.350;2022-11-06T13:23:36;10.80;99.90
18753;DHT22;9505;50.882;5.350;2022-11-06T13:27:02;10.50;99.90
18753;DHT22;9505;50.882;5.350;2022-11-06T13:29:13;10.30;99.90
18753;DHT22;9505;50.882;5.350;2022-11-06T13:32:01;10.30;99.90
18753;DHT22;9505;50.882;5.350;2022-11-06T13:34:37;10.10;99.90
18753;DHT22;9505;50.882;5.350;2022-11-06T13:37:19;10.20;99.90
18753;DHT22;9505;50.882;5.350;2022-11-06T13:40:27;10.10;99.90
18753;DHT22;9505;50.882;5.350;2022-11-06T13:45:24;10.20;99.90
18753;DHT22;9505;50.882;5.350;2022-11-06T13:48:00;10.10;99.90
18753;DHT22;9505;50.882;5.350;2022-11-06T13:50:34;10.10;99.90
18753;DHT22;9505;50.882;5.350;2022-11-06T13:53:37;10.00;99.90
18753;DHT22;9505;50.882;5.350;2022-11-06T14:01:30;10.00;99.90
18753;DHT22;9505;50.882;5.350;2022-11-06T14:04:28;10.00;99.90
18753;DHT22;9505;50.882;5.350;2022-11-06T14:07:00;9.80;99.90
18753;DHT22;9505;50.882;5.350;2022-11-06T14:09:30;9.50;99.90
18753;DHT22;9505;50.882;5.350;2022-11-06T14:12:02;9.50;99.90
18753;DHT22;9505;50.882;5.350;2022-11-06T14:14:30;9.40;99.90
18753;DHT22;9505;50.882;5.350;2022-11-06T14:17:21;9.30;99.90
18753;DHT22;9505;50.882;5.350;2022-11-06T14:24:47;9.20;99.90
18753;DHT22;9505;50.882;5.350;2022-11-06T14:29:58;9.30;99.90
18753;DHT22;9505;50.882;5.350;2022-11-06T14:34:55;9.10;99.90
18753;DHT22;9505;50.882;5.350;2022-11-06T14:42:28;9.00;99.90
18753;DHT22;9505;50.882;5.350;2022-11-06T14:45:11;9.00;99.90
18753;DHT22;9505;50.882;5.350;2022-11-06T14:47:41;9.00;99.90
18753;DHT22;9505;50.882;5.350;2022-11-06T14:52:56;8.90;99.90
18753;DHT22;9505;50.882;5.350;2022-11-06T14:55:42;8.90;99.90
18753;DHT22;9505;50.882;5.350;2022-11-06T14:58:21;8.80;99.90
18753;DHT22;9505;50.882;5.350;2022-11-06T15:13:55;8.60;99.90
18753;DHT22;9505;50.882;5.350;2022-11-06T15:16:54;8.60;99.90
18753;DHT22;9505;50.882;5.350;2022-11-06T15:19:28;8.60;99.90
18753;DHT22;9505;50.882;5.350;2022-11-06T15:24:45;8.70;99.90
18753;DHT22;9505;50.882;5.350;2022-11-06T15:27:17;8.60;99.90
18753;DHT22;9505;50.882;5.350;2022-11-06T15:29:46;8.60;99.90
18753;DHT22;9505;50.882;5.350;2022-11-06T15:32:17;8.70;99.90
18753;DHT22;9505;50.882;5.350;2022-11-06T15:37:16;8.80;99.90
18753;DHT22;9505;50.882;5.350;2022-11-06T15:39:55;8.80;99.90
18753;DHT22;9505;50.882;5.350;2022-11-06T15:42:24;8.80;99.90
18753;DHT22;9505;50.882;5.350;2022-11-06T15:44:50;8.80;99.90
18753;DHT22;9505;50.882;5.350;2022-11-06T15:47:25;8.80;99.90
18753;DHT22;9505;50.882;5.350;2022-11-06T15:52:42;8.80;99.90
18753;DHT22;9505;50.882;5.350;2022-11-06T15:57:52;8.60;99.90
18753;DHT22;9505;50.882;5.350;2022-11-06T16:00:23;8.50;99.90
18753;DHT22;9505;50.882;5.350;2022-11-06T16:02:52;8.50;99.90
18753;DHT22;9505;50.882;5.350;2022-11-06T16:05:23;8.40;99.90
18753;DHT22;9505;50.882;5.350;2022-11-06T16:07:50;8.30;99.90
18753;DHT22;9505;50.882;5.350;2022-11-06T16:10:20;8.30;99.90
18753;DHT22;9505;50.882;5.350;2022-11-06T16:12:48;8.30;99.90
18753;DHT22;9505;50.882;5.350;2022-11-06T16:16:26;8.30;99.90
18753;DHT22;9505;50.882;5.350;2022-11-06T16:20:57;8.30;99.90
18753;DHT22;9505;50.882;5.350;2022-11-06T16:26:09;8.30;99.90
18753;DHT22;9505;50.882;5.350;2022-11-06T16:28:41;8.30;99.90
18753;DHT22;9505;50.882;5.350;2022-11-06T16:31:14;8.30;99.90
18753;DHT22;9505;50.882;5.350;2022-11-06T16:33:55;8.30;99.90
18753;DHT22;9505;50.882;5.350;2022-11-06T16:36:21;8.30;99.90
18753;DHT22;9505;50.882;5.350;2022-11-06T16:38:47;8.30;99.90
18753;DHT22;9505;50.882;5.350;2022-11-06T16:41:16;8.30;99.90
18753;DHT22;9505;50.882;5.350;2022-11-06T16:44:21;8.40;99.90
18753;DHT22;9505;50.882;5.350;2022-11-06T16:49:43;8.50;99.90
18753;DHT22;9505;50.882;5.350;2022-11-06T16:57:21;8.50;99.90
18753;DHT22;9505;50.882;5.350;2022-11-06T17:03:04;8.70;99.90
18753;DHT22;9505;50.882;5.350;2022-11-06T17:05:32;8.70;99.90
18753;DHT22;9505;50.882;5.350;2022-11-06T17:10:47;8.80;99.90
18753;DHT22;9505;50.882;5.350;2022-11-06T17:13:20;8.80;99.90
18753;DHT22;9505;50.882;5.350;2022-11-06T17:15:51;8.80;99.90
18753;DHT22;9505;50.882;5.350;2022-11-06T17:18:19;8.90;99.90
18753;DHT22;9505;50.882;5.350;2022-11-06T17:20:52;8.90;99.90
18753;DHT22;9505;50.882;5.350;2022-11-06T17:23:19;9.00;99.90
18753;DHT22;9505;50.882;5.350;2022-11-06T17:25:45;8.90;99.90
18753;DHT22;9505;50.882;5.350;2022-11-06T17:28:11;9.00;99.90
18753;DHT22;9505;50.882;5.350;2022-11-06T17:30:37;9.00;99.90
18753;DHT22;9505;50.882;5.350;2022-11-06T17:33:03;9.00;99.90
18753;DHT22;9505;50.882;5.350;2022-11-06T17:35:29;9.00;99.90
18753;DHT22;9505;50.882;5.350;2022-11-06T17:37:55;9.10;99.90
18753;DHT22;9505;50.882;5.350;2022-11-06T17:40:20;9.10;99.90
18753;DHT22;9505;50.882;5.350;2022-11-06T17:42:46;9.10;99.90
18753;DHT22;9505;50.882;5.350;2022-11-06T17:45:11;9.10;99.90
18753;DHT22;9505;50.882;5.350;2022-11-06T17:47:37;9.10;99.90
18753;DHT22;9505;50.882;5.350;2022-11-06T17:50:03;9.20;99.90
18753;DHT22;9505;50.882;5.350;2022-11-06T17:52:30;9.20;99.90
18753;DHT22;9505;50.882;5.350;2022-11-06T17:54:55;9.20;99.90
18753;DHT22;9505;50.882;5.350;2022-11-06T17:57:21;9.20;99.90
18753;DHT22;9505;50.882;5.350;2022-11-06T17:59:47;9.30;99.90
18753;DHT22;9505;50.882;5.350;2022-11-06T18:02:13;9.40;99.90
18753;DHT22;9505;50.882;5.350;2022-11-06T18:04:40;9.40;99.90
18753;DHT22;9505;50.882;5.350;2022-11-06T18:07:06;9.50;99.90
18753;DHT22;9505;50.882;5.350;2022-11-06T18:09:32;9.50;99.90
18753;DHT22;9505;50.882;5.350;2022-11-06T18:11:58;9.50;99.90
18753;DHT22;9505;50.882;5.350;2022-11-06T18:14:25;9.50;99.90
18753;DHT22;9505;50.882;5.350;2022-11-06T18:16:51;9.60;99.90
18753;DHT22;9505;50.882;5.350;2022-11-06T18:19:19;9.70;99.90
18753;DHT22;9505;50.882;5.350;2022-11-06T18:21:46;9.80;99.90
18753;DHT22;9505;50.882;5.350;2022-11-06T18:24:12;9.70;99.90
18753;DHT22;9505;50.882;5.350;2022-11-06T18:26:37;9.70;99.90
18753;DHT22;9505;50.882;5.350;2022-11-06T18:29:04;9.80;99.90
18753;DHT22;9505;50.882;5.350;2022-11-06T18:31:30;9.70;99.90
18753;DHT22;9505;50.882;5.350;2022-11-06T18:33:56;9.90;99.90
18753;DHT22;9505;50.882;5.350;2022-11-06T18:36:22;10.00;99.90
18753;DHT22;9505;50.882;5.350;2022-11-06T18:38:48;10.00;99.90
18753;DHT22;9505;50.882;5.350;2022-11-06T18:41:16;10.00;99.90
18753;DHT22;9505;50.882;5.350;2022-11-06T18:43:42;10.00;99.90
18753;DHT22;9505;50.882;5.350;2022-11-06T18:46:10;9.90;99.90
18753;DHT22;9505;50.882;5.350;2022-11-06T18:48:35;10.00;99.90
18753;DHT22;9505;50.882;5.350;2022-11-06T18:51:13;10.10;99.90
18753;DHT22;9505;50.882;5.350;2022-11-06T18:53:40;10.10;99.90
18753;DHT22;9505;50.882;5.350;2022-11-06T18:56:11;10.20;99.90
18753;DHT22;9505;50.882;5.350;2022-11-06T18:58:37;10.20;99.90
18753;DHT22;9505;50.882;5.350;2022-11-06T19:01:08;10.20;99.90
18753;DHT22;9505;50.882;5.350;2022-11-06T19:03:35;10.30;99.90
18753;DHT22;9505;50.882;5.350;2022-11-06T19:06:02;10.30;99.90
18753;DHT22;9505;50.882;5.350;2022-11-06T19:08:28;10.30;99.90